Celje, Slovenia

6:10 AM CEST on September 21, 2014 (GMT +0200)
Celje | Change Station
CLOSE
Current Station
Personal Weather Station
Location: Smartno v Rozni dolini, SLOVENIA
Elevation: 1112 ft
Nearby Weather Stations

Elev 1112 ft 46.30 °N, 15.24 °E | Updated 5 seconds ago

Clear
Clear
56.8 °F
Feels Like 56.8 °F
N
0.0
Wind Variable Wind from West
Gusts 0.0 mph

Today
High -- | Low -- °F
--% Chance of Precip.
Yesterday
High -- | Low -- °F
Precip. -- in
6:44 AM 6:59 PM
Waning Crescent, 9% visible
Pressure 29.95 in
Visibility -9999.0 miles
Clouds
Dew Point 54 °F
Humidity 92%
Rainfall 0.13 in
Snow Depth Not available.
UV 0.0 out of 12
Pollen Not available.
Air Quality Not available.
Flu Activity Not available.
METAR LJMB 210400Z 00000KT CAVOK 16/15 Q1014

More Conditions Fewer Conditions

Pressure 29.95 in
Visibility -9999.0 miles
Clouds
Dew Point 54 °F
Humidity 92%
Rainfall 0.13 in
Snow Depth Not available.
UV 0.0 out of 12
Pollen Not available.
Air Quality Not available.
Flu Activity Not available.
METAR LJMB 210400Z 00000KT CAVOK 16/15 Q1014

More Conditions Fewer Conditions

10-Day Weather Forecast

Almanac

Astronomy

Sep. 21, 2014 Rise Set
Actual Time 6:44 AM CEST 6:59 PM CEST
Civil Twilight 6:14 AM CEST 7:29 PM CEST
Nautical Twilight 5:38 AM CEST 8:04 PM CEST
Astronomical Twilight 5:02 AM CEST 8:40 PM CEST
Moon 3:54 AM CEST 5:31 PM CEST
Length of Visible Light 13h 14m
Length of Day
12h 14m
Tomorrow will be 3m 15s shorter.
Waning Crescent, 9% of the Moon is Illuminated
Today
Waning Crescent
Sep 24
New
Oct 1
First Quarter
Oct 8
Full
Oct 15
Last Quarter

Yesterday's Extremes

Country Highs Country Lows

Community

WunderPhotos

Upload Photos

1,755,081 photos uploaded!

Nearby

Snow Depth

Not available.

Earthquake Activity

City Distance Mag. Time & Date
No recent earthquake activity has been reported nearby.
Minimum magnitude displayed is 2.5.

Coastal Water Temperatures

Place Temperature
No Stations Reporting

Nearby Weather Stations